Time;durP1;ratioP1;P1;durP2;ratioP2;P2;SDS_P1;SDS_P2;PMS_P1;PMS_P2;Temp;Humidity;BMP_temperature;BMP_pressure;BME280_temperature;BME280_humidity;BME280_pressure;Samples;Min_cycle;Max_cycle;Signal;HPM_P1;HPM_P2
2023/06/19 00:00:30;;;;;;;6.80;5.75;;;21.30;99.90;;;;;;5032603;28;20033;-77
2023/06/19 00:02:56;;;;;;;8.32;5.60;;;21.30;99.90;;;;;;5032182;28;20488;-76
2023/06/19 00:05:23;;;;;;;6.47;5.30;;;21.30;99.90;;;;;;5015907;28;20075;-77
2023/06/19 00:07:49;;;;;;;12.10;6.13;;;21.30;99.90;;;;;;5032063;28;20092;-76
2023/06/19 00:10:14;;;;;;;8.43;5.93;;;21.30;99.90;;;;;;5015372;28;20083;-76
2023/06/19 00:12:40;;;;;;;7.88;5.65;;;21.30;99.90;;;;;;5032265;28;20095;-78
2023/06/19 00:15:09;;;;;;;8.00;6.00;;;21.30;99.90;;;;;;5032068;28;20048;-78
2023/06/19 00:17:37;;;;;;;9.25;5.95;;;21.30;99.90;;;;;;5032163;28;20053;-76
2023/06/19 00:20:05;;;;;;;6.38;5.05;;;21.30;99.90;;;;;;5031565;28;20515;-76
2023/06/19 00:22:31;;;;;;;8.70;5.78;;;21.30;99.90;;;;;;5031968;28;20048;-77
2023/06/19 00:24:57;;;;;;;9.65;6.13;;;21.30;99.90;;;;;;5050179;28;20095;-77
2023/06/19 00:27:24;;;;;;;6.47;5.03;;;21.30;99.90;;;;;;5050011;28;20474;-77
2023/06/19 00:29:52;;;;;;;9.65;5.75;;;21.30;99.90;;;;;;5031583;28;20049;-77
2023/06/19 00:32:18;;;;;;;10.43;5.65;;;21.20;99.90;;;;;;5031829;28;20048;-77
2023/06/19 00:34:43;;;;;;;8.38;4.95;;;21.20;99.90;;;;;;5031874;28;20048;-78
2023/06/19 00:37:09;;;;;;;6.95;5.68;;;21.30;99.90;;;;;;5031859;28;20068;-76
2023/06/19 00:39:35;;;;;;;10.40;5.95;;;21.20;99.90;;;;;;5032001;28;20107;-77
2023/06/19 00:42:01;;;;;;;6.82;5.50;;;21.20;99.90;;;;;;5049966;28;20045;-77
2023/06/19 00:44:27;;;;;;;7.30;5.63;;;21.20;99.90;;;;;;5049742;28;20450;-76
2023/06/19 00:46:58;;;;;;;8.02;5.72;;;21.20;99.90;;;;;;5031642;28;20053;-77
2023/06/19 00:49:25;;;;;;;8.73;5.30;;;21.20;99.90;;;;;;5031800;28;20045;-77
2023/06/19 00:51:52;;;;;;;10.52;5.38;;;21.20;99.90;;;;;;5031815;28;20044;-77
2023/06/19 00:54:18;;;;;;;10.80;5.70;;;21.20;99.90;;;;;;5032017;28;20128;-77
2023/06/19 00:56:44;;;;;;;6.95;5.13;;;21.20;99.90;;;;;;5050111;28;20048;-78
2023/06/19 00:59:18;;;;;;;7.45;4.85;;;21.10;99.90;;;;;;5049617;28;20037;-76
2023/06/19 01:01:44;;;;;;;10.55;5.68;;;21.20;99.90;;;;;;5051119;28;20052;-78
2023/06/19 01:04:10;;;;;;;9.77;5.45;;;21.20;99.90;;;;;;5053471;28;20051;-76
2023/06/19 01:06:58;;;;;;;9.35;5.72;;;21.10;99.90;;;;;;5053289;28;20049;-78
2023/06/19 01:09:30;;;;;;;7.78;5.60;;;21.20;99.90;;;;;;5035343;28;20044;-77
2023/06/19 01:12:06;;;;;;;9.40;5.70;;;21.20;99.90;;;;;;5035513;28;20053;-78
2023/06/19 01:14:41;;;;;;;12.00;5.97;;;21.10;99.90;;;;;;5035276;28;20041;-78
2023/06/19 01:17:07;;;;;;;9.50;5.70;;;21.10;99.90;;;;;;5035345;28;20041;-77
2023/06/19 01:19:33;;;;;;;8.68;5.45;;;21.20;99.90;;;;;;5053244;28;20041;-79
2023/06/19 01:22:02;;;;;;;13.45;5.55;;;21.10;99.90;;;;;;5053088;28;20119;-79
2023/06/19 01:24:27;;;;;;;8.85;5.93;;;21.20;99.90;;;;;;5035032;28;20049;-78
2023/06/19 01:26:53;;;;;;;9.32;5.22;;;21.10;99.90;;;;;;5035046;28;20064;-78
2023/06/19 01:29:19;;;;;;;7.85;5.13;;;21.10;99.90;;;;;;5052967;28;20029;-78
2023/06/19 01:32:09;;;;;;;8.43;5.07;;;21.10;99.90;;;;;;5052331;28;20063;-78
2023/06/19 01:34:37;;;;;;;9.93;5.60;;;21.10;99.90;;;;;;5035207;28;20496;-77
2023/06/19 01:37:05;;;;;;;9.52;5.60;;;21.10;99.90;;;;;;5018654;28;20045;-79
2023/06/19 01:39:32;;;;;;;8.95;5.80;;;21.10;99.90;;;;;;5052901;28;20109;-79
2023/06/19 01:41:59;;;;;;;7.90;5.97;;;21.10;99.90;;;;;;5053271;28;20075;-77
2023/06/19 01:44:25;;;;;;;7.80;5.97;;;21.10;99.90;;;;;;5034800;28;20123;-78
2023/06/19 01:46:51;;;;;;;8.73;6.22;;;21.10;99.90;;;;;;5052372;28;20124;-79
2023/06/19 01:49:18;;;;;;;12.18;5.88;;;21.10;99.90;;;;;;5044668;28;20040;-80
2023/06/19 01:51:43;;;;;;;7.80;5.93;;;21.00;99.90;;;;;;5052579;28;20048;-78
2023/06/19 01:54:09;;;;;;;11.40;6.28;;;21.10;99.90;;;;;;5034664;28;20045;-78
2023/06/19 01:56:36;;;;;;;10.80;5.53;;;21.00;99.90;;;;;;5052583;28;20056;-78
2023/06/19 01:59:01;;;;;;;12.20;5.93;;;21.00;99.90;;;;;;5052472;28;20045;-79
2023/06/19 02:01:27;;;;;;;9.27;6.07;;;21.10;99.90;;;;;;5034036;28;20106;-79
2023/06/19 02:03:53;;;;;;;7.70;6.18;;;21.00;99.90;;;;;;5052371;28;20385;-80
2023/06/19 02:06:18;;;;;;;10.07;5.70;;;21.00;99.90;;;;;;5052311;28;20064;-77
2023/06/19 02:08:44;;;;;;;9.00;5.32;;;21.00;99.90;;;;;;5034374;28;20412;-80
2023/06/19 02:11:10;;;;;;;8.57;6.18;;;21.00;99.90;;;;;;5034355;28;20037;-80
2023/06/19 02:13:35;;;;;;;7.55;5.70;;;21.00;99.90;;;;;;5051503;28;20084;-78
2023/06/19 02:16:01;;;;;;;9.60;5.60;;;21.00;99.90;;;;;;5051838;28;20115;-80
2023/06/19 02:18:26;;;;;;;9.30;5.80;;;21.00;99.90;;;;;;5051821;28;20530;-78
2023/06/19 02:20:52;;;;;;;9.63;6.35;;;21.00;99.90;;;;;;5034231;28;20824;-79
2023/06/19 02:23:18;;;;;;;8.27;5.75;;;21.00;99.90;;;;;;5052339;28;20037;-79
2023/06/19 02:25:43;;;;;;;12.25;5.47;;;21.10;99.90;;;;;;5034295;28;20076;-78
2023/06/19 02:28:09;;;;;;;7.15;5.70;;;21.00;99.70;;;;;;5051946;28;20044;-78
2023/06/19 02:30:35;;;;;;;9.07;6.07;;;21.00;99.60;;;;;;5033627;28;20052;-79
2023/06/19 02:33:00;;;;;;;8.98;5.90;;;21.00;99.50;;;;;;5051399;28;20125;-80
2023/06/19 02:35:26;;;;;;;8.98;5.40;;;21.00;99.30;;;;;;5033893;28;20037;-80
2023/06/19 02:37:52;;;;;;;8.35;6.05;;;21.00;99.20;;;;;;5033660;28;20087;-79
2023/06/19 02:40:18;;;;;;;8.77;5.85;;;21.00;99.10;;;;;;5051630;28;20068;-80
2023/06/19 02:42:44;;;;;;;6.85;5.43;;;21.00;99.00;;;;;;5033749;28;20051;-78
2023/06/19 02:45:10;;;;;;;10.63;5.60;;;21.00;99.00;;;;;;5033483;28;20041;-80
2023/06/19 02:47:35;;;;;;;9.50;6.00;;;21.00;98.90;;;;;;5051589;28;20107;-77
2023/06/19 02:50:03;;;;;;;9.70;5.93;;;21.00;99.00;;;;;;5051436;28;20049;-79
2023/06/19 02:52:29;;;;;;;12.02;6.10;;;21.00;99.00;;;;;;5051627;28;20472;-78
2023/06/19 02:54:55;;;;;;;8.52;6.15;;;21.00;99.00;;;;;;5051458;28;20045;-78
2023/06/19 02:57:21;;;;;;;12.13;6.38;;;21.00;99.10;;;;;;5033356;28;20056;-79
2023/06/19 02:59:46;;;;;;;8.68;5.85;;;21.00;99.10;;;;;;5051233;28;20044;-79
2023/06/19 03:02:12;;;;;;;7.07;5.28;;;20.90;99.10;;;;;;5050937;28;20041;-79
2023/06/19 03:04:40;;;;;;;10.10;6.13;;;20.90;99.10;;;;;;5051237;28;20041;-78
2023/06/19 03:07:06;;;;;;;9.25;6.50;;;20.90;99.00;;;;;;5033401;28;20514;-79
2023/06/19 03:09:31;;;;;;;7.90;6.50;;;20.90;99.00;;;;;;5051285;28;20072;-79
2023/06/19 03:11:57;;;;;;;10.85;6.35;;;20.90;99.00;;;;;;5033217;28;20091;-78
2023/06/19 03:14:22;;;;;;;8.55;6.40;;;20.90;99.00;;;;;;5050820;28;20481;-78
2023/06/19 03:16:48;;;;;;;10.15;5.57;;;20.80;99.00;;;;;;5050865;28;20045;-76
2023/06/19 03:19:14;;;;;;;9.40;6.22;;;20.80;98.90;;;;;;5032767;28;20069;-78
2023/06/19 03:21:39;;;;;;;10.88;6.65;;;20.80;98.90;;;;;;5050958;28;20041;-79
2023/06/19 03:24:05;;;;;;;7.22;5.95;;;20.80;98.80;;;;;;5050858;28;20076;-79
2023/06/19 03:26:31;;;;;;;9.80;6.32;;;20.80;98.90;;;;;;5050488;28;20052;-76
2023/06/19 03:28:57;;;;;;;7.68;5.57;;;20.70;98.80;;;;;;5032497;28;20475;-78
2023/06/19 03:31:22;;;;;;;10.05;6.05;;;20.70;98.80;;;;;;5032540;28;20064;-79
2023/06/19 03:33:48;;;;;;;9.70;6.00;;;20.70;98.80;;;;;;5050054;28;20113;-78
2023/06/19 03:36:14;;;;;;;11.38;7.50;;;20.70;98.80;;;;;;5032785;28;20056;-78
2023/06/19 03:38:40;;;;;;;8.25;6.32;;;20.60;98.80;;;;;;5050582;28;20049;-78
2023/06/19 03:41:05;;;;;;;7.50;6.10;;;20.60;99.00;;;;;;5032546;28;20045;-78
2023/06/19 03:43:31;;;;;;;10.77;6.57;;;20.60;99.00;;;;;;5032611;28;20404;-79
2023/06/19 03:45:56;;;;;;;7.63;5.88;;;20.60;99.10;;;;;;5032471;28;20128;-78
2023/06/19 03:48:22;;;;;;;7.65;5.90;;;20.70;99.20;;;;;;5015716;28;20052;-76
2023/06/19 03:50:48;;;;;;;8.50;6.13;;;20.70;99.40;;;;;;5050176;28;20041;-78
2023/06/19 03:53:13;;;;;;;10.32;6.15;;;20.70;99.30;;;;;;5050144;28;20427;-77
2023/06/19 03:55:39;;;;;;;7.47;5.63;;;20.70;99.40;;;;;;5032599;28;20067;-78
2023/06/19 03:58:06;;;;;;;6.63;5.40;;;20.70;99.50;;;;;;5032536;28;20044;-78
2023/06/19 04:00:31;;;;;;;9.93;5.82;;;20.70;99.60;;;;;;5050373;28;20045;-78
2023/06/19 04:02:57;;;;;;;9.13;6.60;;;20.70;99.90;;;;;;5032304;28;20468;-78
2023/06/19 04:05:23;;;;;;;11.07;6.03;;;20.70;99.90;;;;;;5050054;28;20049;-78
2023/06/19 04:07:48;;;;;;;9.20;5.43;;;20.70;99.90;;;;;;5032476;28;20049;-78
2023/06/19 04:10:14;;;;;;;8.70;5.80;;;20.70;99.90;;;;;;5032703;28;20053;-79
2023/06/19 04:12:40;;;;;;;6.95;5.55;;;20.70;99.90;;;;;;5015666;28;20060;-78
2023/06/19 04:15:07;;;;;;;7.28;5.57;;;20.70;99.90;;;;;;5032685;28;20440;-79
2023/06/19 04:17:32;;;;;;;8.40;5.55;;;20.70;99.90;;;;;;5050020;28;20049;-80
2023/06/19 04:19:58;;;;;;;10.07;5.80;;;20.70;99.90;;;;;;5050218;28;20693;-79
2023/06/19 04:22:24;;;;;;;7.15;5.15;;;20.70;99.90;;;;;;5050106;28;20079;-79
2023/06/19 04:24:49;;;;;;;9.23;5.32;;;20.70;99.90;;;;;;5050243;28;20132;-78
2023/06/19 04:27:15;;;;;;;7.55;5.10;;;20.70;99.90;;;;;;5032063;28;20044;-79
2023/06/19 04:29:41;;;;;;;6.68;4.85;;;20.70;99.90;;;;;;5050063;28;20072;-81
2023/06/19 04:32:11;;;;;;;7.05;4.10;;;20.60;99.90;;;;;;5028737;28;20519;-80
2023/06/19 04:34:38;;;;;;;8.23;3.70;;;20.70;99.90;;;;;;5028711;28;20175;-80
2023/06/19 04:37:04;;;;;;;6.07;4.03;;;20.70;99.90;;;;;;5029573;28;20057;-78
2023/06/19 04:39:30;;;;;;;8.63;4.03;;;20.70;99.90;;;;;;5032663;28;20129;-80
2023/06/19 04:41:56;;;;;;;5.35;3.47;;;20.70;99.90;;;;;;5032815;28;20124;-79
2023/06/19 04:44:21;;;;;;;7.90;3.70;;;20.70;99.90;;;;;;5032475;28;20507;-79
2023/06/19 04:46:47;;;;;;;10.57;3.72;;;20.70;99.90;;;;;;5032475;28;20049;-79
2023/06/19 04:49:13;;;;;;;6.70;4.18;;;20.70;99.90;;;;;;5025241;28;20494;-78
2023/06/19 04:51:40;;;;;;;6.38;4.10;;;20.70;99.90;;;;;;5033726;28;20124;-78
2023/06/19 04:54:06;;;;;;;7.35;3.65;;;20.70;99.90;;;;;;5032500;28;20049;-79
2023/06/19 04:56:32;;;;;;;9.07;3.67;;;20.60;99.90;;;;;;5015560;28;20052;-78
2023/06/19 04:58:59;;;;;;;6.60;4.10;;;20.60;99.90;;;;;;5015416;28;20057;-78
2023/06/19 05:01:28;;;;;;;6.18;3.97;;;20.70;99.90;;;;;;5015534;28;20223;-81
2023/06/19 05:03:56;;;;;;;8.68;3.88;;;20.60;99.90;;;;;;5032401;28;20049;-79
2023/06/19 05:06:24;;;;;;;7.50;3.70;;;20.60;99.90;;;;;;5032106;28;20099;-80
2023/06/19 05:08:50;;;;;;;5.35;3.90;;;20.60;99.90;;;;;;5032240;28;20049;-79
2023/06/19 05:11:16;;;;;;;5.65;3.75;;;20.70;99.90;;;;;;5033390;28;20052;-78
2023/06/19 05:13:42;;;;;;;5.50;3.88;;;20.70;99.90;;;;;;5032347;28;20075;-79
2023/06/19 05:16:07;;;;;;;5.90;4.30;;;20.70;99.90;;;;;;5032165;28;20400;-80
2023/06/19 05:18:33;;;;;;;4.60;3.30;;;20.70;99.90;;;;;;5033045;28;20057;-79
2023/06/19 05:20:59;;;;;;;5.32;3.47;;;20.70;99.90;;;;;;5031857;28;20041;-78
2023/06/19 05:23:24;;;;;;;7.05;3.75;;;20.70;99.90;;;;;;5033211;28;20037;-77
2023/06/19 05:25:50;;;;;;;5.18;3.88;;;20.80;99.90;;;;;;5023561;28;20042;-78
2023/06/19 05:28:16;;;;;;;5.07;3.75;;;20.80;99.90;;;;;;5031847;28;20045;-77
2023/06/19 05:30:41;;;;;;;8.15;4.50;;;20.90;99.90;;;;;;5033503;28;20404;-80
2023/06/19 05:33:07;;;;;;;8.02;4.70;;;21.00;99.90;;;;;;5035048;28;20473;-78
2023/06/19 05:35:33;;;;;;;9.30;4.65;;;21.00;99.90;;;;;;5034891;28;20048;-80
2023/06/19 05:37:58;;;;;;;10.30;5.35;;;21.00;99.90;;;;;;5052498;28;20053;-77
2023/06/19 05:40:24;;;;;;;5.53;4.20;;;21.10;99.90;;;;;;5052868;28;20049;-79
2023/06/19 05:42:49;;;;;;;6.45;4.65;;;21.10;99.90;;;;;;5052847;28;20037;-77
2023/06/19 05:45:15;;;;;;;7.70;4.90;;;21.10;99.90;;;;;;5034964;28;20429;-78
2023/06/19 05:47:41;;;;;;;6.25;4.38;;;21.10;99.90;;;;;;5052319;28;20459;-77
2023/06/19 05:50:07;;;;;;;7.50;5.18;;;21.10;99.90;;;;;;5033742;28;20136;-79
2023/06/19 05:52:33;;;;;;;6.45;5.28;;;21.10;99.90;;;;;;5052292;28;20508;-77
2023/06/19 05:54:58;;;;;;;7.40;4.85;;;21.10;99.90;;;;;;5034675;28;20041;-77
2023/06/19 05:57:24;;;;;;;7.88;5.10;;;21.10;99.90;;;;;;5034610;28;20428;-76
2023/06/19 05:59:50;;;;;;;6.68;4.85;;;21.10;99.90;;;;;;5052470;28;20099;-78
2023/06/19 06:02:18;;;;;;;6.72;4.93;;;21.00;99.90;;;;;;5052349;28;20048;-75
2023/06/19 06:04:44;;;;;;;7.85;5.00;;;21.00;99.90;;;;;;5052130;28;20076;-74
2023/06/19 06:07:10;;;;;;;7.78;6.40;;;21.10;99.90;;;;;;5034249;28;20456;-77
2023/06/19 06:09:35;;;;;;;8.95;7.00;;;21.00;99.90;;;;;;5034119;28;20072;-79
2023/06/19 06:12:01;;;;;;;11.85;7.30;;;21.00;99.90;;;;;;5034250;28;20448;-79
2023/06/19 06:14:27;;;;;;;12.13;7.63;;;21.00;99.90;;;;;;5033884;28;20076;-79
2023/06/19 06:16:53;;;;;;;11.30;7.57;;;21.00;99.90;;;;;;5052484;28;20072;-74
2023/06/19 06:19:22;;;;;;;13.55;7.80;;;21.10;99.90;;;;;;5052358;28;20036;-77
2023/06/19 06:21:48;;;;;;;10.90;7.85;;;21.10;99.90;;;;;;5042800;28;20171;-78
2023/06/19 06:24:14;;;;;;;8.80;7.05;;;21.00;99.90;;;;;;5034085;28;20523;-77
2023/06/19 06:26:39;;;;;;;9.63;7.32;;;21.00;99.90;;;;;;5051882;28;20083;-78
2023/06/19 06:29:05;;;;;;;9.57;7.38;;;21.10;99.90;;;;;;5017400;28;20132;-78
2023/06/19 06:31:31;;;;;;;10.57;6.75;;;21.10;99.90;;;;;;5051890;28;20080;-79
2023/06/19 06:33:56;;;;;;;7.57;5.90;;;21.00;99.90;;;;;;5009318;28;20096;-75
2023/06/19 06:36:22;;;;;;;10.73;6.80;;;21.10;99.90;;;;;;5051914;28;20087;-79
2023/06/19 06:38:47;;;;;;;10.63;6.40;;;21.00;99.90;;;;;;5051587;28;20048;-77
2023/06/19 06:41:13;;;;;;;6.60;5.78;;;21.10;99.90;;;;;;5017026;28;20110;-78
2023/06/19 06:43:42;;;;;;;7.57;6.15;;;21.10;99.90;;;;;;5016706;28;20057;-77
2023/06/19 06:46:08;;;;;;;8.73;5.90;;;21.00;99.90;;;;;;5033630;28;20045;-79
2023/06/19 06:48:33;;;;;;;10.45;6.97;;;21.00;99.90;;;;;;5051558;28;20147;-79
2023/06/19 06:51:01;;;;;;;10.30;7.38;;;20.90;99.90;;;;;;5033380;28;20103;-77
2023/06/19 06:53:31;;;;;;;8.15;6.90;;;20.90;99.90;;;;;;5033566;28;20045;-75
2023/06/19 06:55:59;;;;;;;8.23;6.30;;;20.90;99.90;;;;;;5033289;28;20056;-77
2023/06/19 06:58:25;;;;;;;7.43;6.43;;;20.80;99.90;;;;;;5051460;28;20049;-80
2023/06/19 07:00:51;;;;;;;9.82;7.90;;;20.70;99.90;;;;;;5033028;28;20041;-77
2023/06/19 07:03:18;;;;;;;20.00;8.52;;;20.70;99.90;;;;;;5033094;28;20088;-78
2023/06/19 07:05:44;;;;;;;9.77;7.95;;;20.70;99.90;;;;;;5016403;28;20063;-78
2023/06/19 07:08:09;;;;;;;13.23;8.93;;;20.70;99.90;;;;;;5033175;28;20044;-76
2023/06/19 07:10:35;;;;;;;14.68;10.38;;;20.60;99.90;;;;;;5050732;28;20091;-79
2023/06/19 07:13:00;;;;;;;12.52;10.60;;;20.60;99.90;;;;;;5051101;28;20094;-76
2023/06/19 07:15:26;;;;;;;15.38;12.20;;;20.60;99.90;;;;;;5033001;28;20404;-76
2023/06/19 07:17:52;;;;;;;16.85;12.43;;;20.50;99.90;;;;;;5033130;28;20459;-77
2023/06/19 07:20:18;;;;;;;19.73;13.68;;;20.50;99.90;;;;;;5050903;28;20051;-78
2023/06/19 07:22:44;;;;;;;14.65;12.70;;;20.50;99.90;;;;;;5032958;28;20048;-78
2023/06/19 07:25:11;;;;;;;22.30;14.82;;;20.50;99.90;;;;;;5032680;28;20075;-78
2023/06/19 07:27:37;;;;;;;20.33;14.90;;;20.50;99.90;;;;;;5032755;28;20052;-78
2023/06/19 07:30:03;;;;;;;21.40;15.52;;;20.40;99.90;;;;;;5051017;28;20059;-77
2023/06/19 07:32:29;;;;;;;18.65;14.90;;;20.40;99.90;;;;;;5032699;28;20455;-76
2023/06/19 07:34:54;;;;;;;21.73;14.07;;;20.40;99.90;;;;;;5032690;28;20052;-79
2023/06/19 07:37:20;;;;;;;19.23;14.63;;;20.40;99.90;;;;;;5032884;28;20049;-78
2023/06/19 07:39:50;;;;;;;21.10;14.63;;;20.50;99.90;;;;;;5033021;28;20400;-78
2023/06/19 07:42:18;;;;;;;21.17;14.07;;;20.50;99.90;;;;;;5033017;28;20507;-80
2023/06/19 07:44:44;;;;;;;17.25;13.00;;;20.40;99.90;;;;;;5033259;28;20076;-78
2023/06/19 07:47:10;;;;;;;18.05;12.52;;;20.50;99.90;;;;;;5042373;28;20049;-77
2023/06/19 07:49:36;;;;;;;15.68;11.98;;;20.50;99.90;;;;;;5032794;28;20102;-78
2023/06/19 07:52:02;;;;;;;18.83;12.43;;;20.50;99.90;;;;;;5032224;28;20080;-78
2023/06/19 07:54:28;;;;;;;16.23;11.93;;;20.60;99.90;;;;;;5032527;28;20052;-81
2023/06/19 07:56:53;;;;;;;16.13;11.20;;;20.60;99.90;;;;;;5016068;28;20052;-76
2023/06/19 07:59:19;;;;;;;16.20;11.30;;;20.70;99.90;;;;;;5050244;28;20515;-76
2023/06/19 08:01:45;;;;;;;14.82;10.50;;;20.70;99.90;;;;;;5032466;28;20053;-76
2023/06/19 08:04:11;;;;;;;15.93;9.50;;;20.70;99.90;;;;;;5032600;28;20040;-76
2023/06/19 08:06:37;;;;;;;16.25;9.50;;;20.50;99.90;;;;;;5032253;28;20124;-77
2023/06/19 08:09:03;;;;;;;11.60;8.63;;;20.40;99.90;;;;;;5050533;28;20037;-77
2023/06/19 08:11:29;;;;;;;13.70;8.50;;;20.40;99.90;;;;;;5031438;28;20397;-79
2023/06/19 08:13:54;;;;;;;13.35;9.18;;;20.40;99.90;;;;;;5050151;28;20045;-79
2023/06/19 08:16:20;;;;;;;11.48;8.25;;;20.40;99.90;;;;;;5032317;28;20511;-77
2023/06/19 08:18:46;;;;;;;12.00;9.00;;;20.40;99.90;;;;;;5032134;28;20040;-77
2023/06/19 08:21:13;;;;;;;16.25;9.02;;;20.40;99.90;;;;;;5032292;28;20045;-75
2023/06/19 08:23:39;;;;;;;14.20;8.80;;;20.50;99.90;;;;;;5050025;28;20083;-76
2023/06/19 08:26:05;;;;;;;14.93;8.82;;;20.40;99.90;;;;;;5032218;28;20127;-77
2023/06/19 08:28:34;;;;;;;17.17;8.27;;;20.40;99.90;;;;;;5031720;28;20053;-76
2023/06/19 08:31:00;;;;;;;11.75;8.55;;;20.30;99.90;;;;;;5028696;28;20093;-76
2023/06/19 08:33:26;;;;;;;13.18;8.45;;;20.30;99.90;;;;;;5029045;28;20386;-79
2023/06/19 08:35:52;;;;;;;12.50;8.23;;;20.30;99.90;;;;;;5029893;28;20048;-77
2023/06/19 08:38:19;;;;;;;12.52;8.00;;;20.20;99.90;;;;;;5029970;28;20522;-76
2023/06/19 08:40:45;;;;;;;13.05;8.27;;;20.20;99.90;;;;;;5030063;28;20049;-77
2023/06/19 08:43:11;;;;;;;12.45;7.28;;;20.20;99.90;;;;;;5028656;28;20045;-78
2023/06/19 08:45:37;;;;;;;11.10;7.10;;;20.10;99.90;;;;;;5028952;28;20060;-78
2023/06/19 08:48:03;;;;;;;12.68;6.90;;;20.10;99.90;;;;;;5029622;28;20500;-76
2023/06/19 08:50:33;;;;;;;9.63;6.70;;;20.10;99.90;;;;;;5011891;28;20128;-77
2023/06/19 08:52:59;;;;;;;11.15;6.47;;;20.10;99.90;;;;;;5029812;28;20144;-77
2023/06/19 08:55:25;;;;;;;9.13;6.22;;;20.10;99.90;;;;;;5030256;28;20116;-76
2023/06/19 08:57:52;;;;;;;11.02;6.03;;;20.20;99.90;;;;;;5028993;28;20457;-76
2023/06/19 09:00:26;;;;;;;10.82;6.00;;;20.20;99.90;;;;;;5028580;28;20054;-78
2023/06/19 09:02:52;;;;;;;10.52;5.55;;;20.20;99.90;;;;;;5028513;28;20481;-78
2023/06/19 09:05:19;;;;;;;8.52;5.45;;;20.20;99.90;;;;;;5028367;28;20052;-78
2023/06/19 09:07:58;;;;;;;6.35;4.60;;;20.20;99.90;;;;;;5029629;28;20489;-76
2023/06/19 09:10:24;;;;;;;7.78;5.20;;;20.20;99.90;;;;;;5028362;28;20081;-77
2023/06/19 09:13:03;;;;;;;6.40;4.65;;;20.20;99.90;;;;;;5029834;28;20120;-77
2023/06/19 09:15:31;;;;;;;10.75;5.55;;;20.30;99.90;;;;;;5028245;28;20041;-74
2023/06/19 09:18:15;;;;;;;7.68;5.00;;;20.30;99.90;;;;;;5029569;28;20050;-75
2023/06/19 09:20:44;;;;;;;9.20;4.97;;;20.40;99.90;;;;;;5029564;28;20049;-76
2023/06/19 09:23:11;;;;;;;9.88;4.72;;;20.40;99.90;;;;;;5030002;28;20119;-78
2023/06/19 09:25:47;;;;;;;7.65;5.30;;;20.50;99.90;;;;;;5033303;28;20045;-76
2023/06/19 09:28:21;;;;;;;6.50;4.50;;;20.50;99.90;;;;;;5033483;28;20041;-77
2023/06/19 09:31:01;;;;;;;6.88;5.13;;;20.60;99.90;;;;;;5033969;28;20053;-75
2023/06/19 09:33:29;;;;;;;8.18;6.13;;;20.50;99.90;;;;;;5053124;28;20120;-77
2023/06/19 09:35:56;;;;;;;8.63;6.38;;;20.50;99.90;;;;;;5034729;28;20055;-78
2023/06/19 09:38:25;;;;;;;15.18;6.68;;;20.60;99.90;;;;;;5052931;28;20392;-78
2023/06/19 09:40:52;;;;;;;15.95;7.47;;;20.60;99.90;;;;;;5034916;28;20511;-77
2023/06/19 09:43:33;;;;;;;10.70;7.18;;;20.60;99.90;;;;;;5034811;28;20618;-76
2023/06/19 09:46:00;;;;;;;11.85;7.35;;;20.60;99.90;;;;;;5052497;28;20040;-75
2023/06/19 09:48:30;;;;;;;8.80;7.43;;;20.60;99.90;;;;;;5052842;28;20045;-75
2023/06/19 09:51:10;;;;;;;12.52;7.93;;;20.60;99.90;;;;;;5052625;28;20052;-76
2023/06/19 09:53:36;;;;;;;12.50;8.63;;;20.60;99.90;;;;;;5034466;28;20060;-77
2023/06/19 09:56:02;;;;;;;15.70;8.60;;;20.50;99.90;;;;;;5017356;28;20048;-76
2023/06/19 09:58:29;;;;;;;9.60;8.00;;;20.40;99.90;;;;;;5052435;28;20033;-75
2023/06/19 10:00:55;;;;;;;14.07;8.25;;;20.40;99.90;;;;;;5052310;28;20108;-77
2023/06/19 10:03:29;;;;;;;15.68;9.18;;;20.40;99.90;;;;;;5052426;28;20037;-77
2023/06/19 10:05:59;;;;;;;12.93;9.55;;;20.40;99.90;;;;;;5052440;28;20065;-78
2023/06/19 10:08:39;;;;;;;11.10;8.98;;;20.30;99.90;;;;;;5052201;28;20443;-76
2023/06/19 10:11:05;;;;;;;11.88;9.45;;;20.30;99.90;;;;;;5034397;28;20049;-76
2023/06/19 10:13:38;;;;;;;9.77;8.43;;;20.20;99.90;;;;;;5034122;28;20454;-76
2023/06/19 10:16:04;;;;;;;14.88;8.90;;;20.30;99.90;;;;;;5051998;28;20049;-78
2023/06/19 10:18:32;;;;;;;13.70;9.48;;;20.20;99.90;;;;;;5034003;28;20053;-77
2023/06/19 10:20:58;;;;;;;14.23;10.00;;;20.20;99.90;;;;;;5052390;28;20037;-75
2023/06/19 10:23:27;;;;;;;16.70;10.32;;;20.20;99.90;;;;;;5034304;28;20045;-75
2023/06/19 10:25:53;;;;;;;12.80;9.45;;;20.30;99.90;;;;;;5034492;28;20057;-78
2023/06/19 10:28:25;;;;;;;12.25;9.85;;;20.40;99.90;;;;;;5052030;28;20048;-76
2023/06/19 10:31:05;;;;;;;13.48;10.35;;;20.50;99.90;;;;;;5025352;28;20381;-76
2023/06/19 10:33:42;;;;;;;10.98;9.57;;;20.60;99.90;;;;;;5051820;28;20076;-77
2023/06/19 10:36:22;;;;;;;10.55;8.90;;;20.60;99.90;;;;;;5044375;28;20083;-76
2023/06/19 10:38:49;;;;;;;14.63;8.50;;;20.60;99.90;;;;;;5051546;28;20120;-78
2023/06/19 10:41:25;;;;;;;12.73;8.55;;;20.50;99.90;;;;;;5033790;28;20587;-76
2023/06/19 10:43:57;;;;;;;12.93;9.88;;;20.50;99.90;;;;;;5033205;28;20057;-76
2023/06/19 10:46:24;;;;;;;14.50;10.27;;;20.60;99.90;;;;;;5051126;28;20485;-77
2023/06/19 10:48:59;;;;;;;16.65;10.07;;;20.60;99.90;;;;;;5051565;28;20052;-76
2023/06/19 10:51:27;;;;;;;16.45;10.23;;;20.70;99.90;;;;;;5051585;28;20408;-77
2023/06/19 10:53:55;;;;;;;13.82;10.40;;;20.70;99.90;;;;;;5051604;28;20127;-77
2023/06/19 10:56:22;;;;;;;15.68;11.63;;;20.70;99.90;;;;;;5017061;28;20048;-75
2023/06/19 10:58:47;;;;;;;13.73;10.20;;;20.70;99.90;;;;;;5033612;28;20377;-77
2023/06/19 11:01:13;;;;;;;17.48;9.70;;;20.90;99.90;;;;;;5050938;28;20047;-76
2023/06/19 11:03:39;;;;;;;12.10;9.48;;;21.10;99.90;;;;;;5033294;28;20049;-76
2023/06/19 11:06:04;;;;;;;14.73;9.50;;;21.20;99.90;;;;;;5051385;28;20056;-77
2023/06/19 11:08:30;;;;;;;16.48;10.32;;;21.40;99.90;;;;;;5033241;28;20044;-78
2023/06/19 11:10:56;;;;;;;11.32;9.35;;;21.40;99.90;;;;;;5051345;28;20049;-75
2023/06/19 11:13:22;;;;;;;15.70;9.70;;;21.40;99.90;;;;;;5033366;28;20041;-76
2023/06/19 11:15:51;;;;;;;16.95;10.30;;;21.40;99.90;;;;;;5033002;28;20131;-77
2023/06/19 11:18:18;;;;;;;12.73;10.65;;;21.40;99.90;;;;;;5050621;28;20048;-75
2023/06/19 11:20:50;;;;;;;16.60;10.10;;;21.50;99.90;;;;;;5016195;28;20065;-77
2023/06/19 11:23:36;;;;;;;15.15;11.05;;;21.60;99.90;;;;;;5051161;28;20029;-77
2023/06/19 11:26:06;;;;;;;15.43;11.07;;;21.80;99.90;;;;;;5035228;28;20522;-77
2023/06/19 11:28:32;;;;;;;16.65;11.23;;;22.00;99.90;;;;;;5032874;28;20147;-77
2023/06/19 11:31:02;;;;;;;14.98;10.70;;;22.20;99.90;;;;;;5032652;28;20057;-77
2023/06/19 11:33:29;;;;;;;15.15;10.60;;;22.30;99.90;;;;;;5050415;28;20488;-76
2023/06/19 11:35:59;;;;;;;14.65;10.75;;;22.30;99.90;;;;;;5032914;28;21230;-76
2023/06/19 11:38:26;;;;;;;14.65;10.23;;;22.30;99.90;;;;;;5032919;28;20069;-77
2023/06/19 11:40:52;;;;;;;14.38;9.80;;;22.30;99.90;;;;;;5016022;28;20040;-75
2023/06/19 11:43:31;;;;;;;13.40;10.00;;;22.30;99.90;;;;;;5032621;28;20041;-76
2023/06/19 11:46:04;;;;;;;17.15;10.88;;;22.40;99.90;;;;;;5049899;28;20105;-74
2023/06/19 11:48:30;;;;;;;16.33;10.38;;;22.50;99.90;;;;;;5032406;28;20049;-75
2023/06/19 11:50:56;;;;;;;12.75;9.85;;;22.50;99.90;;;;;;5050222;28;20496;-75
2023/06/19 11:53:24;;;;;;;13.07;9.07;;;22.60;99.90;;;;;;5032670;28;20041;-76
2023/06/19 11:55:50;;;;;;;17.95;10.73;;;22.50;99.90;;;;;;5032566;28;20044;-76
2023/06/19 11:58:18;;;;;;;14.57;10.85;;;22.50;99.90;;;;;;5032404;28;20053;-77
2023/06/19 12:00:43;;;;;;;14.50;10.07;;;22.90;99.90;;;;;;5050547;28;20410;-76
2023/06/19 12:03:09;;;;;;;14.10;10.73;;;23.10;99.90;;;;;;5050126;28;20044;-75
2023/06/19 12:05:36;;;;;;;15.80;10.60;;;23.10;99.90;;;;;;5050035;28;20435;-77
2023/06/19 12:08:04;;;;;;;18.98;10.10;;;23.10;99.90;;;;;;5050110;28;20136;-77
2023/06/19 12:10:30;;;;;;;13.75;9.90;;;23.30;99.90;;;;;;5032081;28;20052;-75
2023/06/19 12:12:55;;;;;;;15.65;10.50;;;23.40;99.90;;;;;;5050180;28;20048;-75
2023/06/19 12:15:21;;;;;;;14.25;9.80;;;23.40;99.90;;;;;;5032410;28;20427;-77
2023/06/19 12:17:47;;;;;;;19.02;9.73;;;23.30;99.90;;;;;;5050291;28;20503;-75
2023/06/19 12:20:13;;;;;;;11.48;9.55;;;23.20;99.90;;;;;;5049852;28;20241;-77
2023/06/19 12:22:40;;;;;;;15.60;11.15;;;23.10;99.90;;;;;;5049939;28;20051;-76
2023/06/19 12:25:06;;;;;;;19.70;10.10;;;23.20;99.90;;;;;;5049984;28;20087;-75
2023/06/19 12:27:32;;;;;;;17.98;10.63;;;23.30;99.90;;;;;;5031864;28;20500;-76
2023/06/19 12:29:57;;;;;;;13.00;10.20;;;23.30;99.90;;;;;;5032315;28;20044;-75
2023/06/19 12:32:24;;;;;;;15.73;10.25;;;23.30;99.90;;;;;;5031886;28;20065;-77
2023/06/19 12:34:53;;;;;;;13.85;9.02;;;23.30;99.90;;;;;;5031582;28;20053;-75
2023/06/19 12:37:20;;;;;;;12.98;9.30;;;23.50;99.90;;;;;;5032034;28;20052;-76
2023/06/19 12:39:49;;;;;;;13.45;9.02;;;23.60;99.90;;;;;;5014901;28;20053;-76